sensor_id;sensor_type;location;lat;lon;timestamp;P1;durP1;ratioP1;P2;durP2;ratioP2
12218;SDS011;6172;42.646;23.344;2023-12-04T00:00:23;5.20;;;2.87;;
12218;SDS011;6172;42.646;23.344;2023-12-04T00:02:50;4.63;;;2.70;;
12218;SDS011;6172;42.646;23.344;2023-12-04T00:05:19;6.73;;;3.27;;
12218;SDS011;6172;42.646;23.344;2023-12-04T00:07:47;5.50;;;3.53;;
12218;SDS011;6172;42.646;23.344;2023-12-04T00:10:16;5.87;;;3.37;;
12218;SDS011;6172;42.646;23.344;2023-12-04T00:12:43;5.53;;;3.30;;
12218;SDS011;6172;42.646;23.344;2023-12-04T00:15:10;4.53;;;2.73;;
12218;SDS011;6172;42.646;23.344;2023-12-04T00:17:37;6.23;;;2.90;;
12218;SDS011;6172;42.646;23.344;2023-12-04T00:20:06;5.07;;;3.20;;
12218;SDS011;6172;42.646;23.344;2023-12-04T00:22:34;5.53;;;3.60;;
12218;SDS011;6172;42.646;23.344;2023-12-04T00:25:01;5.43;;;3.17;;
12218;SDS011;6172;42.646;23.344;2023-12-04T00:27:30;4.33;;;2.90;;
12218;SDS011;6172;42.646;23.344;2023-12-04T00:29:57;5.13;;;3.50;;
12218;SDS011;6172;42.646;23.344;2023-12-04T00:32:25;4.77;;;2.97;;
12218;SDS011;6172;42.646;23.344;2023-12-04T00:34:52;5.77;;;3.30;;
12218;SDS011;6172;42.646;23.344;2023-12-04T00:37:19;3.70;;;3.03;;
12218;SDS011;6172;42.646;23.344;2023-12-04T00:39:46;6.90;;;3.57;;
12218;SDS011;6172;42.646;23.344;2023-12-04T00:42:13;3.97;;;2.80;;
12218;SDS011;6172;42.646;23.344;2023-12-04T00:44:42;5.87;;;2.87;;
12218;SDS011;6172;42.646;23.344;2023-12-04T00:47:09;6.93;;;3.33;;
12218;SDS011;6172;42.646;23.344;2023-12-04T00:49:36;7.17;;;3.60;;
12218;SDS011;6172;42.646;23.344;2023-12-04T00:52:04;4.67;;;3.13;;
12218;SDS011;6172;42.646;23.344;2023-12-04T00:54:31;6.90;;;3.83;;
12218;SDS011;6172;42.646;23.344;2023-12-04T00:56:58;6.33;;;3.87;;
12218;SDS011;6172;42.646;23.344;2023-12-04T00:59:25;6.47;;;3.67;;
12218;SDS011;6172;42.646;23.344;2023-12-04T01:01:53;7.13;;;3.67;;
12218;SDS011;6172;42.646;23.344;2023-12-04T01:04:20;6.57;;;3.40;;
12218;SDS011;6172;42.646;23.344;2023-12-04T01:06:47;5.63;;;3.50;;
12218;SDS011;6172;42.646;23.344;2023-12-04T01:09:15;4.10;;;3.07;;
12218;SDS011;6172;42.646;23.344;2023-12-04T01:11:42;6.93;;;3.67;;
12218;SDS011;6172;42.646;23.344;2023-12-04T01:14:09;6.17;;;3.60;;
12218;SDS011;6172;42.646;23.344;2023-12-04T01:16:36;6.93;;;4.03;;
12218;SDS011;6172;42.646;23.344;2023-12-04T01:19:05;6.30;;;3.90;;
12218;SDS011;6172;42.646;23.344;2023-12-04T01:21:32;6.50;;;4.40;;
12218;SDS011;6172;42.646;23.344;2023-12-04T01:23:59;6.43;;;3.77;;
12218;SDS011;6172;42.646;23.344;2023-12-04T01:26:27;6.40;;;4.10;;
12218;SDS011;6172;42.646;23.344;2023-12-04T01:28:55;6.47;;;3.70;;
12218;SDS011;6172;42.646;23.344;2023-12-04T01:31:22;7.67;;;4.00;;
12218;SDS011;6172;42.646;23.344;2023-12-04T01:33:49;7.10;;;4.17;;
12218;SDS011;6172;42.646;23.344;2023-12-04T01:36:17;6.73;;;4.60;;
12218;SDS011;6172;42.646;23.344;2023-12-04T01:38:45;7.17;;;3.87;;
12218;SDS011;6172;42.646;23.344;2023-12-04T01:41:12;7.80;;;4.20;;
12218;SDS011;6172;42.646;23.344;2023-12-04T01:43:39;6.33;;;3.90;;
12218;SDS011;6172;42.646;23.344;2023-12-04T01:46:06;7.20;;;3.80;;
12218;SDS011;6172;42.646;23.344;2023-12-04T01:48:34;8.60;;;4.50;;
12218;SDS011;6172;42.646;23.344;2023-12-04T01:51:04;7.27;;;3.67;;
12218;SDS011;6172;42.646;23.344;2023-12-04T01:53:36;5.13;;;3.50;;
12218;SDS011;6172;42.646;23.344;2023-12-04T01:56:06;7.87;;;4.60;;
12218;SDS011;6172;42.646;23.344;2023-12-04T01:58:34;6.30;;;4.23;;
12218;SDS011;6172;42.646;23.344;2023-12-04T02:01:01;7.93;;;4.23;;
12218;SDS011;6172;42.646;23.344;2023-12-04T02:03:29;4.60;;;3.03;;
12218;SDS011;6172;42.646;23.344;2023-12-04T02:05:57;6.67;;;3.80;;
12218;SDS011;6172;42.646;23.344;2023-12-04T02:08:28;6.93;;;3.70;;
12218;SDS011;6172;42.646;23.344;2023-12-04T02:10:58;5.77;;;3.70;;
12218;SDS011;6172;42.646;23.344;2023-12-04T02:13:26;7.37;;;4.03;;
12218;SDS011;6172;42.646;23.344;2023-12-04T02:15:54;5.90;;;3.63;;
12218;SDS011;6172;42.646;23.344;2023-12-04T02:18:25;6.23;;;4.07;;
12218;SDS011;6172;42.646;23.344;2023-12-04T02:20:56;6.60;;;3.53;;
12218;SDS011;6172;42.646;23.344;2023-12-04T02:23:24;6.20;;;3.40;;
12218;SDS011;6172;42.646;23.344;2023-12-04T02:25:52;5.30;;;3.50;;
12218;SDS011;6172;42.646;23.344;2023-12-04T02:28:31;5.33;;;3.43;;
12218;SDS011;6172;42.646;23.344;2023-12-04T02:31:07;5.63;;;3.43;;
12218;SDS011;6172;42.646;23.344;2023-12-04T02:33:36;6.00;;;3.87;;
12218;SDS011;6172;42.646;23.344;2023-12-04T02:36:05;5.40;;;3.23;;
12218;SDS011;6172;42.646;23.344;2023-12-04T02:38:34;7.70;;;3.93;;
12218;SDS011;6172;42.646;23.344;2023-12-04T02:41:03;6.17;;;3.90;;
12218;SDS011;6172;42.646;23.344;2023-12-04T02:43:31;4.77;;;3.27;;
12218;SDS011;6172;42.646;23.344;2023-12-04T02:45:59;5.93;;;3.50;;
12218;SDS011;6172;42.646;23.344;2023-12-04T02:48:26;4.83;;;3.20;;
12218;SDS011;6172;42.646;23.344;2023-12-04T02:50:53;6.27;;;3.67;;
12218;SDS011;6172;42.646;23.344;2023-12-04T02:53:21;5.87;;;3.60;;
12218;SDS011;6172;42.646;23.344;2023-12-04T02:55:48;4.60;;;3.00;;
12218;SDS011;6172;42.646;23.344;2023-12-04T02:58:17;4.53;;;2.73;;
12218;SDS011;6172;42.646;23.344;2023-12-04T03:00:45;5.53;;;3.00;;
12218;SDS011;6172;42.646;23.344;2023-12-04T03:03:12;6.50;;;3.00;;
12218;SDS011;6172;42.646;23.344;2023-12-04T03:05:40;4.60;;;3.00;;
12218;SDS011;6172;42.646;23.344;2023-12-04T03:08:07;5.53;;;3.77;;
12218;SDS011;6172;42.646;23.344;2023-12-04T03:10:34;5.27;;;2.93;;
12218;SDS011;6172;42.646;23.344;2023-12-04T03:13:02;5.40;;;3.17;;
12218;SDS011;6172;42.646;23.344;2023-12-04T03:15:34;5.27;;;3.57;;
12218;SDS011;6172;42.646;23.344;2023-12-04T03:18:04;5.27;;;3.30;;
12218;SDS011;6172;42.646;23.344;2023-12-04T03:20:32;5.40;;;3.40;;
12218;SDS011;6172;42.646;23.344;2023-12-04T03:22:59;6.10;;;3.40;;
12218;SDS011;6172;42.646;23.344;2023-12-04T03:25:26;5.20;;;3.40;;
12218;SDS011;6172;42.646;23.344;2023-12-04T03:27:54;4.33;;;3.20;;
12218;SDS011;6172;42.646;23.344;2023-12-04T03:30:21;5.23;;;3.47;;
12218;SDS011;6172;42.646;23.344;2023-12-04T03:32:50;5.20;;;3.43;;
12218;SDS011;6172;42.646;23.344;2023-12-04T03:35:18;6.73;;;3.37;;
12218;SDS011;6172;42.646;23.344;2023-12-04T03:37:45;5.20;;;2.93;;
12218;SDS011;6172;42.646;23.344;2023-12-04T03:40:13;6.07;;;3.37;;
12218;SDS011;6172;42.646;23.344;2023-12-04T03:42:40;6.60;;;3.13;;
12218;SDS011;6172;42.646;23.344;2023-12-04T03:45:08;4.90;;;3.10;;
12218;SDS011;6172;42.646;23.344;2023-12-04T03:47:36;6.10;;;3.60;;
12218;SDS011;6172;42.646;23.344;2023-12-04T03:50:05;5.07;;;3.60;;
12218;SDS011;6172;42.646;23.344;2023-12-04T03:52:33;6.20;;;3.70;;
12218;SDS011;6172;42.646;23.344;2023-12-04T03:55:00;5.10;;;3.30;;
12218;SDS011;6172;42.646;23.344;2023-12-04T03:57:27;10.80;;;4.53;;
12218;SDS011;6172;42.646;23.344;2023-12-04T03:59:54;5.80;;;3.60;;
12218;SDS011;6172;42.646;23.344;2023-12-04T04:02:21;5.83;;;3.50;;
12218;SDS011;6172;42.646;23.344;2023-12-04T04:04:49;6.53;;;4.00;;
12218;SDS011;6172;42.646;23.344;2023-12-04T04:07:20;6.10;;;3.63;;
12218;SDS011;6172;42.646;23.344;2023-12-04T04:09:48;5.57;;;3.77;;
12218;SDS011;6172;42.646;23.344;2023-12-04T04:12:15;5.50;;;3.47;;
12218;SDS011;6172;42.646;23.344;2023-12-04T04:14:42;6.27;;;3.43;;
12218;SDS011;6172;42.646;23.344;2023-12-04T04:17:09;7.10;;;4.03;;
12218;SDS011;6172;42.646;23.344;2023-12-04T04:19:36;5.80;;;3.53;;
12218;SDS011;6172;42.646;23.344;2023-12-04T04:22:04;5.90;;;3.40;;
12218;SDS011;6172;42.646;23.344;2023-12-04T04:24:33;9.10;;;3.47;;
12218;SDS011;6172;42.646;23.344;2023-12-04T04:27:00;7.33;;;3.97;;
12218;SDS011;6172;42.646;23.344;2023-12-04T04:29:27;7.97;;;3.90;;
12218;SDS011;6172;42.646;23.344;2023-12-04T04:31:55;5.80;;;3.50;;
12218;SDS011;6172;42.646;23.344;2023-12-04T04:34:22;6.23;;;3.90;;
12218;SDS011;6172;42.646;23.344;2023-12-04T04:36:52;7.70;;;4.13;;
12218;SDS011;6172;42.646;23.344;2023-12-04T04:39:22;6.70;;;4.17;;
12218;SDS011;6172;42.646;23.344;2023-12-04T04:41:51;4.93;;;3.30;;
12218;SDS011;6172;42.646;23.344;2023-12-04T04:44:18;7.07;;;3.97;;
12218;SDS011;6172;42.646;23.344;2023-12-04T04:46:45;5.23;;;3.53;;
12218;SDS011;6172;42.646;23.344;2023-12-04T04:49:13;5.87;;;3.50;;
12218;SDS011;6172;42.646;23.344;2023-12-04T04:51:40;5.80;;;3.70;;
12218;SDS011;6172;42.646;23.344;2023-12-04T04:54:07;6.20;;;3.87;;
12218;SDS011;6172;42.646;23.344;2023-12-04T04:56:34;6.33;;;3.40;;
12218;SDS011;6172;42.646;23.344;2023-12-04T04:59:04;3.87;;;3.00;;
12218;SDS011;6172;42.646;23.344;2023-12-04T05:01:31;7.27;;;3.70;;
12218;SDS011;6172;42.646;23.344;2023-12-04T05:04:02;7.30;;;3.77;;
12218;SDS011;6172;42.646;23.344;2023-12-04T05:06:32;4.77;;;3.40;;
12218;SDS011;6172;42.646;23.344;2023-12-04T05:08:59;4.93;;;3.03;;
12218;SDS011;6172;42.646;23.344;2023-12-04T05:11:26;6.10;;;3.57;;
12218;SDS011;6172;42.646;23.344;2023-12-04T05:13:53;5.43;;;3.20;;
12218;SDS011;6172;42.646;23.344;2023-12-04T05:16:22;6.57;;;3.83;;
12218;SDS011;6172;42.646;23.344;2023-12-04T05:18:49;6.80;;;3.87;;
12218;SDS011;6172;42.646;23.344;2023-12-04T05:21:17;5.57;;;3.37;;
12218;SDS011;6172;42.646;23.344;2023-12-04T05:23:44;6.70;;;4.10;;
12218;SDS011;6172;42.646;23.344;2023-12-04T05:26:11;7.37;;;4.00;;
12218;SDS011;6172;42.646;23.344;2023-12-04T05:28:39;10.47;;;3.80;;
12218;SDS011;6172;42.646;23.344;2023-12-04T05:31:06;6.70;;;3.73;;
12218;SDS011;6172;42.646;23.344;2023-12-04T05:33:36;6.10;;;3.60;;
12218;SDS011;6172;42.646;23.344;2023-12-04T05:36:03;6.23;;;3.77;;
12218;SDS011;6172;42.646;23.344;2023-12-04T05:38:31;6.53;;;4.40;;
12218;SDS011;6172;42.646;23.344;2023-12-04T05:40:59;6.60;;;4.00;;
12218;SDS011;6172;42.646;23.344;2023-12-04T05:43:26;7.27;;;4.20;;
12218;SDS011;6172;42.646;23.344;2023-12-04T05:45:53;7.37;;;4.13;;
12218;SDS011;6172;42.646;23.344;2023-12-04T05:48:21;7.53;;;4.30;;
12218;SDS011;6172;42.646;23.344;2023-12-04T05:50:49;7.40;;;4.10;;
12218;SDS011;6172;42.646;23.344;2023-12-04T05:53:16;6.70;;;4.83;;
12218;SDS011;6172;42.646;23.344;2023-12-04T05:55:43;7.50;;;4.67;;
12218;SDS011;6172;42.646;23.344;2023-12-04T05:58:11;7.30;;;4.63;;
12218;SDS011;6172;42.646;23.344;2023-12-04T06:00:39;7.77;;;4.53;;
12218;SDS011;6172;42.646;23.344;2023-12-04T06:03:09;7.40;;;4.37;;
12218;SDS011;6172;42.646;23.344;2023-12-04T06:05:37;6.77;;;4.57;;
12218;SDS011;6172;42.646;23.344;2023-12-04T06:08:06;7.00;;;4.87;;
12218;SDS011;6172;42.646;23.344;2023-12-04T06:10:33;8.07;;;4.77;;
12218;SDS011;6172;42.646;23.344;2023-12-04T06:13:00;8.97;;;4.33;;
12218;SDS011;6172;42.646;23.344;2023-12-04T06:15:28;9.17;;;5.33;;
12218;SDS011;6172;42.646;23.344;2023-12-04T06:17:57;8.37;;;4.80;;
12218;SDS011;6172;42.646;23.344;2023-12-04T06:20:24;8.47;;;4.77;;
12218;SDS011;6172;42.646;23.344;2023-12-04T06:22:54;6.87;;;5.03;;
12218;SDS011;6172;42.646;23.344;2023-12-04T06:25:26;7.03;;;4.27;;
12218;SDS011;6172;42.646;23.344;2023-12-04T06:27:54;8.33;;;4.50;;
12218;SDS011;6172;42.646;23.344;2023-12-04T06:30:22;11.40;;;5.00;;
12218;SDS011;6172;42.646;23.344;2023-12-04T06:32:50;10.40;;;4.93;;
12218;SDS011;6172;42.646;23.344;2023-12-04T06:35:18;6.83;;;4.67;;
12218;SDS011;6172;42.646;23.344;2023-12-04T06:37:45;8.57;;;4.70;;
12218;SDS011;6172;42.646;23.344;2023-12-04T06:40:15;7.47;;;4.30;;
12218;SDS011;6172;42.646;23.344;2023-12-04T06:42:44;9.30;;;5.20;;
12218;SDS011;6172;42.646;23.344;2023-12-04T06:45:12;8.33;;;4.77;;
12218;SDS011;6172;42.646;23.344;2023-12-04T06:47:40;7.70;;;4.80;;
12218;SDS011;6172;42.646;23.344;2023-12-04T06:50:09;8.30;;;4.93;;
12218;SDS011;6172;42.646;23.344;2023-12-04T06:52:37;8.47;;;4.83;;
12218;SDS011;6172;42.646;23.344;2023-12-04T06:55:04;8.20;;;4.57;;
12218;SDS011;6172;42.646;23.344;2023-12-04T06:57:32;8.33;;;4.20;;
12218;SDS011;6172;42.646;23.344;2023-12-04T07:00:01;6.27;;;4.33;;
12218;SDS011;6172;42.646;23.344;2023-12-04T07:02:28;8.00;;;4.60;;
12218;SDS011;6172;42.646;23.344;2023-12-04T07:04:55;8.53;;;5.00;;
12218;SDS011;6172;42.646;23.344;2023-12-04T07:07:22;9.23;;;5.13;;
12218;SDS011;6172;42.646;23.344;2023-12-04T07:09:50;11.00;;;5.70;;
12218;SDS011;6172;42.646;23.344;2023-12-04T07:12:17;8.60;;;5.57;;
12218;SDS011;6172;42.646;23.344;2023-12-04T07:14:45;11.50;;;5.60;;
12218;SDS011;6172;42.646;23.344;2023-12-04T07:17:15;9.33;;;5.20;;
12218;SDS011;6172;42.646;23.344;2023-12-04T07:19:43;7.17;;;5.37;;
12218;SDS011;6172;42.646;23.344;2023-12-04T07:22:10;9.90;;;4.53;;
12218;SDS011;6172;42.646;23.344;2023-12-04T07:24:39;10.07;;;5.53;;
12218;SDS011;6172;42.646;23.344;2023-12-04T07:27:06;6.17;;;4.33;;
12218;SDS011;6172;42.646;23.344;2023-12-04T07:29:34;7.07;;;4.13;;
12218;SDS011;6172;42.646;23.344;2023-12-04T07:32:03;8.17;;;3.93;;
12218;SDS011;6172;42.646;23.344;2023-12-04T07:34:32;6.67;;;4.17;;
12218;SDS011;6172;42.646;23.344;2023-12-04T07:36:59;7.50;;;4.27;;
12218;SDS011;6172;42.646;23.344;2023-12-04T07:39:27;6.97;;;4.13;;
12218;SDS011;6172;42.646;23.344;2023-12-04T07:41:55;8.23;;;4.60;;
12218;SDS011;6172;42.646;23.344;2023-12-04T07:44:22;7.60;;;4.60;;
12218;SDS011;6172;42.646;23.344;2023-12-04T07:46:49;8.57;;;4.20;;
12218;SDS011;6172;42.646;23.344;2023-12-04T07:49:20;6.43;;;3.80;;
12218;SDS011;6172;42.646;23.344;2023-12-04T07:51:48;6.97;;;4.27;;
12218;SDS011;6172;42.646;23.344;2023-12-04T07:54:15;6.10;;;4.03;;
12218;SDS011;6172;42.646;23.344;2023-12-04T07:56:42;9.00;;;4.37;;
12218;SDS011;6172;42.646;23.344;2023-12-04T07:59:09;8.07;;;4.00;;
12218;SDS011;6172;42.646;23.344;2023-12-04T08:01:36;7.20;;;4.10;;
12218;SDS011;6172;42.646;23.344;2023-12-04T08:04:03;8.87;;;4.93;;
12218;SDS011;6172;42.646;23.344;2023-12-04T08:06:31;6.80;;;3.90;;
12218;SDS011;6172;42.646;23.344;2023-12-04T08:08:59;5.97;;;3.63;;
12218;SDS011;6172;42.646;23.344;2023-12-04T08:11:27;5.90;;;4.03;;
12218;SDS011;6172;42.646;23.344;2023-12-04T08:13:55;7.13;;;3.93;;
12218;SDS011;6172;42.646;23.344;2023-12-04T08:16:22;7.20;;;4.50;;
12218;SDS011;6172;42.646;23.344;2023-12-04T08:18:49;6.37;;;4.03;;
12218;SDS011;6172;42.646;23.344;2023-12-04T08:21:16;8.23;;;4.70;;
12218;SDS011;6172;42.646;23.344;2023-12-04T08:23:43;6.40;;;4.03;;
12218;SDS011;6172;42.646;23.344;2023-12-04T08:26:13;4.97;;;3.10;;
12218;SDS011;6172;42.646;23.344;2023-12-04T08:28:40;6.80;;;3.27;;
12218;SDS011;6172;42.646;23.344;2023-12-04T08:31:08;4.43;;;2.97;;
12218;SDS011;6172;42.646;23.344;2023-12-04T08:33:35;4.83;;;2.80;;
12218;SDS011;6172;42.646;23.344;2023-12-04T08:36:02;5.87;;;3.60;;
12218;SDS011;6172;42.646;23.344;2023-12-04T08:38:30;3.77;;;2.90;;
12218;SDS011;6172;42.646;23.344;2023-12-04T08:40:57;4.70;;;2.77;;
12218;SDS011;6172;42.646;23.344;2023-12-04T08:43:26;3.30;;;2.40;;
12218;SDS011;6172;42.646;23.344;2023-12-04T08:45:54;4.00;;;2.87;;
12218;SDS011;6172;42.646;23.344;2023-12-04T08:48:21;3.87;;;2.90;;
12218;SDS011;6172;42.646;23.344;2023-12-04T08:50:48;6.87;;;2.90;;
12218;SDS011;6172;42.646;23.344;2023-12-04T08:53:15;4.50;;;3.03;;
12218;SDS011;6172;42.646;23.344;2023-12-04T08:55:42;4.80;;;2.40;;
12218;SDS011;6172;42.646;23.344;2023-12-04T08:58:10;6.50;;;4.23;;
12218;SDS011;6172;42.646;23.344;2023-12-04T09:00:39;4.50;;;2.40;;
12218;SDS011;6172;42.646;23.344;2023-12-04T09:03:08;3.20;;;2.23;;
12218;SDS011;6172;42.646;23.344;2023-12-04T09:05:35;2.73;;;2.10;;
12218;SDS011;6172;42.646;23.344;2023-12-04T09:08:03;4.77;;;2.83;;
12218;SDS011;6172;42.646;23.344;2023-12-04T09:10:30;6.10;;;2.90;;
12218;SDS011;6172;42.646;23.344;2023-12-04T09:12:57;4.83;;;2.83;;
12218;SDS011;6172;42.646;23.344;2023-12-04T09:15:24;4.97;;;2.63;;
12218;SDS011;6172;42.646;23.344;2023-12-04T09:17:52;3.43;;;2.60;;
12218;SDS011;6172;42.646;23.344;2023-12-04T09:20:19;5.70;;;2.90;;
12218;SDS011;6172;42.646;23.344;2023-12-04T09:22:47;3.97;;;3.27;;
12218;SDS011;6172;42.646;23.344;2023-12-04T09:25:30;4.87;;;2.83;;
12218;SDS011;6172;42.646;23.344;2023-12-04T09:27:57;3.30;;;2.33;;
12218;SDS011;6172;42.646;23.344;2023-12-04T09:30:25;5.67;;;2.80;;
12218;SDS011;6172;42.646;23.344;2023-12-04T09:32:54;4.20;;;2.63;;
12218;SDS011;6172;42.646;23.344;2023-12-04T09:35:21;3.17;;;2.60;;
12218;SDS011;6172;42.646;23.344;2023-12-04T09:37:50;6.47;;;2.57;;
12218;SDS011;6172;42.646;23.344;2023-12-04T09:40:17;4.03;;;2.90;;
12218;SDS011;6172;42.646;23.344;2023-12-04T09:42:44;4.20;;;2.87;;
12218;SDS011;6172;42.646;23.344;2023-12-04T09:45:14;5.00;;;2.80;;
12218;SDS011;6172;42.646;23.344;2023-12-04T09:47:41;5.50;;;3.00;;
12218;SDS011;6172;42.646;23.344;2023-12-04T09:50:11;4.30;;;3.00;;
12218;SDS011;6172;42.646;23.344;2023-12-04T09:52:46;5.43;;;3.30;;
12218;SDS011;6172;42.646;23.344;2023-12-04T09:55:15;6.10;;;3.40;;
12218;SDS011;6172;42.646;23.344;2023-12-04T09:57:44;5.23;;;3.13;;
12218;SDS011;6172;42.646;23.344;2023-12-04T10:00:13;4.63;;;2.53;;
12218;SDS011;6172;42.646;23.344;2023-12-04T10:02:40;3.93;;;2.70;;
12218;SDS011;6172;42.646;23.344;2023-12-04T10:05:08;5.83;;;2.97;;
12218;SDS011;6172;42.646;23.344;2023-12-04T10:07:38;4.00;;;3.27;;
12218;SDS011;6172;42.646;23.344;2023-12-04T10:10:05;6.07;;;3.10;;
12218;SDS011;6172;42.646;23.344;2023-12-04T10:12:35;5.77;;;3.33;;
12218;SDS011;6172;42.646;23.344;2023-12-04T10:15:03;3.73;;;2.67;;
12218;SDS011;6172;42.646;23.344;2023-12-04T10:17:35;3.50;;;3.07;;
12218;SDS011;6172;42.646;23.344;2023-12-04T10:20:05;7.63;;;3.50;;
12218;SDS011;6172;42.646;23.344;2023-12-04T10:22:53;6.60;;;2.90;;
12218;SDS011;6172;42.646;23.344;2023-12-04T10:25:21;5.93;;;3.37;;
12218;SDS011;6172;42.646;23.344;2023-12-04T10:27:50;3.43;;;2.83;;
12218;SDS011;6172;42.646;23.344;2023-12-04T10:30:26;4.40;;;2.80;;
12218;SDS011;6172;42.646;23.344;2023-12-04T10:32:55;4.53;;;2.80;;
12218;SDS011;6172;42.646;23.344;2023-12-04T10:35:26;4.20;;;2.77;;
12218;SDS011;6172;42.646;23.344;2023-12-04T10:38:00;3.73;;;2.80;;
12218;SDS011;6172;42.646;23.344;2023-12-04T10:40:29;3.47;;;2.87;;
12218;SDS011;6172;42.646;23.344;2023-12-04T10:45:44;3.27;;;2.50;;
12218;SDS011;6172;42.646;23.344;2023-12-04T10:48:13;5.37;;;3.10;;
12218;SDS011;6172;42.646;23.344;2023-12-04T10:50:43;4.10;;;2.73;;
12218;SDS011;6172;42.646;23.344;2023-12-04T10:53:13;3.20;;;2.77;;
12218;SDS011;6172;42.646;23.344;2023-12-04T10:55:42;3.97;;;2.60;;
12218;SDS011;6172;42.646;23.344;2023-12-04T10:58:11;6.00;;;2.73;;
12218;SDS011;6172;42.646;23.344;2023-12-04T11:00:40;6.40;;;3.10;;
12218;SDS011;6172;42.646;23.344;2023-12-04T11:03:10;4.10;;;2.53;;
12218;SDS011;6172;42.646;23.344;2023-12-04T11:05:40;6.13;;;3.10;;
12218;SDS011;6172;42.646;23.344;2023-12-04T11:08:09;3.77;;;2.83;;
12218;SDS011;6172;42.646;23.344;2023-12-04T11:10:45;3.77;;;2.57;;
12218;SDS011;6172;42.646;23.344;2023-12-04T11:13:19;3.50;;;2.33;;
12218;SDS011;6172;42.646;23.344;2023-12-04T11:15:50;4.03;;;2.50;;
12218;SDS011;6172;42.646;23.344;2023-12-04T11:18:20;4.23;;;2.57;;
12218;SDS011;6172;42.646;23.344;2023-12-04T11:20:51;4.37;;;2.40;;
12218;SDS011;6172;42.646;23.344;2023-12-04T11:23:25;3.27;;;2.50;;
12218;SDS011;6172;42.646;23.344;2023-12-04T11:25:53;4.13;;;2.57;;
12218;SDS011;6172;42.646;23.344;2023-12-04T11:28:21;4.23;;;2.77;;
12218;SDS011;6172;42.646;23.344;2023-12-04T11:30:49;6.50;;;2.90;;
12218;SDS011;6172;42.646;23.344;2023-12-04T11:33:17;3.87;;;2.60;;
12218;SDS011;6172;42.646;23.344;2023-12-04T11:35:46;3.80;;;3.00;;
12218;SDS011;6172;42.646;23.344;2023-12-04T11:38:17;5.60;;;2.50;;
12218;SDS011;6172;42.646;23.344;2023-12-04T11:40:46;4.00;;;2.50;;
12218;SDS011;6172;42.646;23.344;2023-12-04T11:43:24;4.90;;;2.67;;
12218;SDS011;6172;42.646;23.344;2023-12-04T11:45:52;3.10;;;2.00;;
12218;SDS011;6172;42.646;23.344;2023-12-04T11:48:22;5.73;;;2.70;;
12218;SDS011;6172;42.646;23.344;2023-12-04T11:50:50;3.87;;;2.70;;
12218;SDS011;6172;42.646;23.344;2023-12-04T11:53:17;3.77;;;2.67;;
12218;SDS011;6172;42.646;23.344;2023-12-04T11:55:45;5.53;;;2.97;;
12218;SDS011;6172;42.646;23.344;2023-12-04T11:58:15;4.17;;;2.67;;
12218;SDS011;6172;42.646;23.344;2023-12-04T12:00:42;5.63;;;3.03;;
12218;SDS011;6172;42.646;23.344;2023-12-04T12:03:09;7.43;;;3.10;;
12218;SDS011;6172;42.646;23.344;2023-12-04T12:05:37;5.63;;;3.50;;
12218;SDS011;6172;42.646;23.344;2023-12-04T12:08:06;5.63;;;3.23;;
12218;SDS011;6172;42.646;23.344;2023-12-04T12:10:35;8.43;;;3.80;;
12218;SDS011;6172;42.646;23.344;2023-12-04T12:13:06;6.03;;;3.17;;
12218;SDS011;6172;42.646;23.344;2023-12-04T12:15:34;7.10;;;3.40;;
12218;SDS011;6172;42.646;23.344;2023-12-04T12:18:01;5.03;;;3.20;;
12218;SDS011;6172;42.646;23.344;2023-12-04T12:20:29;4.23;;;3.20;;
12218;SDS011;6172;42.646;23.344;2023-12-04T12:22:58;6.53;;;3.17;;
12218;SDS011;6172;42.646;23.344;2023-12-04T12:25:37;4.60;;;3.10;;
12218;SDS011;6172;42.646;23.344;2023-12-04T12:28:09;8.20;;;3.57;;
12218;SDS011;6172;42.646;23.344;2023-12-04T12:30:36;11.03;;;3.40;;
12218;SDS011;6172;42.646;23.344;2023-12-04T12:33:03;5.10;;;3.83;;
12218;SDS011;6172;42.646;23.344;2023-12-04T12:35:30;6.43;;;3.70;;
12218;SDS011;6172;42.646;23.344;2023-12-04T12:37:57;5.77;;;3.70;;
12218;SDS011;6172;42.646;23.344;2023-12-04T12:40:25;5.47;;;3.57;;
12218;SDS011;6172;42.646;23.344;2023-12-04T12:43:02;7.10;;;3.60;;
12218;SDS011;6172;42.646;23.344;2023-12-04T12:45:39;4.57;;;3.50;;
12218;SDS011;6172;42.646;23.344;2023-12-04T12:48:09;5.53;;;3.53;;
12218;SDS011;6172;42.646;23.344;2023-12-04T12:50:37;7.83;;;3.80;;
12218;SDS011;6172;42.646;23.344;2023-12-04T12:53:05;7.60;;;3.73;;
12218;SDS011;6172;42.646;23.344;2023-12-04T12:55:32;5.47;;;3.63;;
12218;SDS011;6172;42.646;23.344;2023-12-04T12:58:00;6.00;;;4.07;;
12218;SDS011;6172;42.646;23.344;2023-12-04T13:00:31;5.17;;;3.50;;
12218;SDS011;6172;42.646;23.344;2023-12-04T13:03:01;6.93;;;3.93;;
12218;SDS011;6172;42.646;23.344;2023-12-04T13:05:28;5.80;;;3.63;;
12218;SDS011;6172;42.646;23.344;2023-12-04T13:07:55;6.60;;;4.50;;
12218;SDS011;6172;42.646;23.344;2023-12-04T13:10:22;6.60;;;4.50;;
12218;SDS011;6172;42.646;23.344;2023-12-04T13:12:51;7.00;;;4.73;;
12218;SDS011;6172;42.646;23.344;2023-12-04T13:15:20;9.20;;;4.83;;
12218;SDS011;6172;42.646;23.344;2023-12-04T13:17:47;10.97;;;5.87;;
12218;SDS011;6172;42.646;23.344;2023-12-04T13:20:16;10.90;;;5.40;;
12218;SDS011;6172;42.646;23.344;2023-12-04T13:22:43;10.50;;;5.93;;
12218;SDS011;6172;42.646;23.344;2023-12-04T13:25:10;11.27;;;6.70;;
12218;SDS011;6172;42.646;23.344;2023-12-04T13:27:39;14.23;;;6.77;;
12218;SDS011;6172;42.646;23.344;2023-12-04T13:30:07;9.90;;;6.23;;
12218;SDS011;6172;42.646;23.344;2023-12-04T13:32:35;10.30;;;5.93;;
12218;SDS011;6172;42.646;23.344;2023-12-04T13:35:05;11.60;;;7.10;;
12218;SDS011;6172;42.646;23.344;2023-12-04T13:37:34;12.37;;;6.70;;
12218;SDS011;6172;42.646;23.344;2023-12-04T13:40:04;12.33;;;7.83;;
12218;SDS011;6172;42.646;23.344;2023-12-04T13:42:33;16.07;;;7.37;;
12218;SDS011;6172;42.646;23.344;2023-12-04T13:45:18;11.70;;;6.43;;
12218;SDS011;6172;42.646;23.344;2023-12-04T13:47:47;12.77;;;6.93;;
12218;SDS011;6172;42.646;23.344;2023-12-04T13:50:14;14.03;;;6.90;;
12218;SDS011;6172;42.646;23.344;2023-12-04T13:52:43;13.43;;;7.67;;
12218;SDS011;6172;42.646;23.344;2023-12-04T13:55:19;14.97;;;8.10;;
12218;SDS011;6172;42.646;23.344;2023-12-04T13:58:01;12.47;;;6.83;;
12218;SDS011;6172;42.646;23.344;2023-12-04T14:00:49;13.43;;;7.03;;
12218;SDS011;6172;42.646;23.344;2023-12-04T14:03:16;19.27;;;8.53;;
12218;SDS011;6172;42.646;23.344;2023-12-04T14:05:43;16.07;;;7.83;;
12218;SDS011;6172;42.646;23.344;2023-12-04T14:08:12;15.73;;;7.53;;
12218;SDS011;6172;42.646;23.344;2023-12-04T14:10:40;16.43;;;8.40;;
12218;SDS011;6172;42.646;23.344;2023-12-04T14:13:07;11.50;;;7.00;;
12218;SDS011;6172;42.646;23.344;2023-12-04T14:15:34;14.40;;;8.20;;
12218;SDS011;6172;42.646;23.344;2023-12-04T14:18:01;19.20;;;8.10;;
12218;SDS011;6172;42.646;23.344;2023-12-04T14:20:28;19.67;;;8.13;;
12218;SDS011;6172;42.646;23.344;2023-12-04T14:22:56;17.77;;;8.63;;
12218;SDS011;6172;42.646;23.344;2023-12-04T14:25:24;12.53;;;7.57;;
12218;SDS011;6172;42.646;23.344;2023-12-04T14:27:51;16.13;;;7.70;;
12218;SDS011;6172;42.646;23.344;2023-12-04T14:30:18;12.00;;;6.90;;
12218;SDS011;6172;42.646;23.344;2023-12-04T14:32:46;19.87;;;7.63;;
12218;SDS011;6172;42.646;23.344;2023-12-04T14:35:13;16.20;;;7.83;;
12218;SDS011;6172;42.646;23.344;2023-12-04T14:37:43;16.97;;;7.27;;
12218;SDS011;6172;42.646;23.344;2023-12-04T14:40:11;13.37;;;7.20;;
12218;SDS011;6172;42.646;23.344;2023-12-04T14:42:43;15.33;;;7.37;;
12218;SDS011;6172;42.646;23.344;2023-12-04T14:45:11;16.37;;;7.47;;
12218;SDS011;6172;42.646;23.344;2023-12-04T14:47:38;17.17;;;7.50;;
12218;SDS011;6172;42.646;23.344;2023-12-04T14:50:06;14.77;;;8.13;;
12218;SDS011;6172;42.646;23.344;2023-12-04T14:52:35;24.23;;;9.97;;
12218;SDS011;6172;42.646;23.344;2023-12-04T14:55:11;29.97;;;9.80;;